MiSS Mallory — WDB5044 — position and weather

sailwx.info

Track history (hours):
 
Tides and Currents Weather Stations Pressure Air Temp Water Temp Dewpoint Dewpoint Depression Visibility Wind Speed Wind Dir Waves Ship Positions

MiSS Mallory

Owner: POTOMAC RIVERBOAT COMPANY, ALEXANDRIA, VA. More information available from US FCC via Universal Licensing System and Coast Guard Vessel Documentation Center.

Last reported at 2017-Dec-17 06:07 UTC. Time now 2018-Jan-21 18:21 UTC.
Position N 38°48' W 077°02'.
Warning: this ship's position is 35 days out of date.

Length 22 m; draft 2 m.

Type: Passenger vessel. MMSI: 366905270.

Date/timePositionNaut miles runAvg speedWind from/ knotsBaromVisibWave heightAir tempDewpointWater temp
2017-Dec-17 06:07N 38°48' W 077°02'0 0.0
2017-Dec-17 05:54N 38°48' W 077°02'1 2.7
2017-Dec-17 05:29N 38°49' W 077°02'5 9.7
2017-Dec-17 04:59N 38°54' W 077°04'1 1.8
2017-Dec-17 04:30N 38°53' W 077°03'5 8.9
2017-Dec-17 03:59N 38°49' W 077°02'1 1.2
2017-Dec-17 03:30N 38°48' W 077°02'4 7.6
2017-Dec-17 02:59N 38°52' W 077°02'3 5.6
2017-Dec-17 02:30N 38°54' W 077°04'1 1.0
2017-Dec-17 02:00N 38°54' W 077°04'4 8.5
2017-Dec-17 01:30N 38°50' W 077°02'2 3.1
2017-Dec-17 00:58N 38°48' W 077°02'0 0.0
2017-Dec-17 00:27N 38°48' W 077°02'0 0.0
2017-Dec-16 23:51N 38°48' W 077°02'0 0.0
2017-Dec-16 23:30N 38°48' W 077°02'0 0.0
2017-Dec-15 22:05N 38°48' W 077°02'0 0.0
2017-Dec-15 21:55N 38°48' W 077°02'0 0.0
2017-Dec-15 21:29N 38°48' W 077°02'0 0.0
2017-Dec-15 20:59N 38°48' W 077°02'0 0.0
2017-Dec-15 20:27N 38°48' W 077°02'0 0.0
2017-Dec-15 19:58N 38°48' W 077°02'0 0.0
2017-Dec-15 19:29N 38°48' W 077°02'0 0.0
2017-Dec-15 18:57N 38°48' W 077°02'0 0.0
2017-Dec-15 18:21N 38°48' W 077°02'0 0.0
2017-Dec-15 17:58N 38°48' W 077°02'0 0.0
2017-Dec-15 17:23N 38°48' W 077°02'0 0.0
2017-Dec-15 16:59N 38°48' W 077°02'  
Track history (hours):
 
Tides and Currents Weather Stations Pressure Air Temp Water Temp Dewpoint Dewpoint Depression Visibility Wind Speed Wind Dir Waves Ship Positions

MiSS Mallory

Owner: POTOMAC RIVERBOAT COMPANY, ALEXANDRIA, VA. More information available from US FCC via Universal Licensing System and Coast Guard Vessel Documentation Center.

Last reported at 2017-Dec-17 06:07 UTC. Time now 2018-Jan-21 18:21 UTC.
Position N 38°48' W 077°02'.
Warning: this ship's position is 35 days out of date.

Length 22 m; draft 2 m.

Type: Passenger vessel. MMSI: 366905270.

Date/timePositionNaut miles runAvg speedWind from/ knotsBaromVisibWave heightAir tempDewpointWater temp
2017-Dec-17 06:07N 38°48' W 077°02'0 0.0
2017-Dec-17 05:54N 38°48' W 077°02'1 2.7
2017-Dec-17 05:29N 38°49' W 077°02'5 9.7
2017-Dec-17 04:59N 38°54' W 077°04'1 1.8
2017-Dec-17 04:30N 38°53' W 077°03'5 8.9
2017-Dec-17 03:59N 38°49' W 077°02'1 1.2
2017-Dec-17 03:30N 38°48' W 077°02'4 7.6
2017-Dec-17 02:59N 38°52' W 077°02'3 5.6
2017-Dec-17 02:30N 38°54' W 077°04'1 1.0
2017-Dec-17 02:00N 38°54' W 077°04'4 8.5
2017-Dec-17 01:30N 38°50' W 077°02'2 3.1
2017-Dec-17 00:58N 38°48' W 077°02'0 0.0
2017-Dec-17 00:27N 38°48' W 077°02'0 0.0
2017-Dec-16 23:51N 38°48' W 077°02'0 0.0
2017-Dec-16 23:30N 38°48' W 077°02'0 0.0
2017-Dec-15 22:05N 38°48' W 077°02'0 0.0
2017-Dec-15 21:55N 38°48' W 077°02'0 0.0
2017-Dec-15 21:29N 38°48' W 077°02'0 0.0
2017-Dec-15 20:59N 38°48' W 077°02'0 0.0
2017-Dec-15 20:27N 38°48' W 077°02'0 0.0
2017-Dec-15 19:58N 38°48' W 077°02'0 0.0
2017-Dec-15 19:29N 38°48' W 077°02'0 0.0
2017-Dec-15 18:57N 38°48' W 077°02'0 0.0
2017-Dec-15 18:21N 38°48' W 077°02'0 0.0
2017-Dec-15 17:58N 38°48' W 077°02'0 0.0
2017-Dec-15 17:23N 38°48' W 077°02'0 0.0
2017-Dec-15 16:59N 38°48' W 077°02'  

Dump ship's entire track history